createdAt,value
2018-01-15T00:00:04.389Z,1008.6
2018-01-15T00:00:44.706Z,1008.65
2018-01-15T00:01:25.090Z,1008.57
2018-01-15T00:02:05.455Z,1008.63
2018-01-15T00:02:45.871Z,1008.58
2018-01-15T00:03:26.275Z,1008.6
2018-01-15T00:04:06.699Z,1008.57
2018-01-15T00:04:47.111Z,1008.57
2018-01-15T00:05:27.762Z,1008.54
2018-01-15T00:06:08.063Z,1008.53
2018-01-15T00:06:48.616Z,1008.53
2018-01-15T00:07:28.933Z,1008.56
2018-01-15T00:08:09.409Z,1008.53
2018-01-15T00:08:49.739Z,1008.53
2018-01-15T00:09:30.214Z,1008.5
2018-01-15T00:10:10.657Z,1008.52
2018-01-15T00:10:50.984Z,1008.49
2018-01-15T00:11:31.421Z,1008.43
2018-01-15T00:12:11.816Z,1008.43
2018-01-15T00:12:52.293Z,1008.42
2018-01-15T00:13:32.668Z,1008.46
2018-01-15T00:14:13.096Z,1008.42
2018-01-15T00:14:53.935Z,1008.38
2018-01-15T00:15:34.388Z,1008.41
2018-01-15T00:16:14.686Z,1008.42
2018-01-15T00:16:55.106Z,1008.44
2018-01-15T00:17:35.568Z,1008.4
2018-01-15T00:18:16.045Z,1008.35
2018-01-15T00:18:56.354Z,1008.4
2018-01-15T00:19:36.800Z,1008.34
2018-01-15T00:20:17.133Z,1008.37
2018-01-15T00:22:10.788Z,1008.34
2018-01-15T00:22:51.735Z,1008.28
2018-01-15T00:23:32.161Z,1008.32
2018-01-15T00:24:12.670Z,1008.29
2018-01-15T00:24:53.497Z,1008.34
2018-01-15T00:25:33.885Z,1008.31
2018-01-15T00:26:14.309Z,1008.25
2018-01-15T00:26:54.762Z,1008.3
2018-01-15T00:27:35.076Z,1008.29
2018-01-15T00:28:15.477Z,1008.3
2018-01-15T00:28:55.851Z,1008.32
2018-01-15T00:29:36.245Z,1008.31
2018-01-15T00:30:16.651Z,1008.28
2018-01-15T00:30:57.034Z,1008.27
2018-01-15T00:31:37.480Z,1008.24
2018-01-15T00:32:17.913Z,1008.21
2018-01-15T00:32:58.230Z,1008.21
2018-01-15T00:33:38.657Z,1008.18
2018-01-15T00:34:19.503Z,1008.15
2018-01-15T00:35:00.305Z,1008.14
2018-01-15T00:35:40.706Z,1008.13
2018-01-15T00:36:21.098Z,1008.11
2018-01-15T00:37:01.514Z,1008.11
2018-01-15T00:37:41.919Z,1008.11
2018-01-15T00:38:22.305Z,1008.1
2018-01-15T00:39:02.705Z,1008.07
2018-01-15T00:39:43.108Z,1008.08
2018-01-15T00:40:23.717Z,1008.02
2018-01-15T00:41:03.917Z,1008.02
2018-01-15T00:41:44.833Z,1008.03
2018-01-15T00:42:25.225Z,1008.11
2018-01-15T00:43:05.820Z,1008.01
2018-01-15T00:43:46.272Z,1008.05
2018-01-15T00:44:26.656Z,1008.04
2018-01-15T00:45:07.053Z,1008.03
2018-01-15T00:45:47.476Z,1008
2018-01-15T00:46:27.997Z,1008.01
2018-01-15T00:47:08.299Z,1007.98
2018-01-15T00:47:48.720Z,1007.96
2018-01-15T00:48:29.057Z,1007.94
2018-01-15T00:49:09.490Z,1007.98
2018-01-15T00:49:49.902Z,1008
2018-01-15T00:50:30.334Z,1008.02
2018-01-15T00:51:10.766Z,1008.04
2018-01-15T00:51:51.218Z,1008.05
2018-01-15T00:52:31.589Z,1008.03
2018-01-15T00:53:12.161Z,1008.09
2018-01-15T00:53:52.425Z,1008.05
2018-01-15T00:54:32.852Z,1008.11
2018-01-15T00:55:13.218Z,1008.04
2018-01-15T00:55:53.782Z,1008.08
2018-01-15T00:56:34.076Z,1008.02
2018-01-15T00:57:14.469Z,1007.97
2018-01-15T00:57:54.882Z,1007.99
2018-01-15T00:58:35.307Z,1007.97
2018-01-15T00:59:15.658Z,1007.98
2018-01-15T00:59:56.058Z,1007.98
2018-01-15T01:00:36.451Z,1007.93
2018-01-15T01:01:16.871Z,1007.95
2018-01-15T01:01:57.573Z,1007.93
2018-01-15T01:02:37.929Z,1007.88
2018-01-15T01:03:18.320Z,1007.88
2018-01-15T01:03:58.783Z,1007.92
2018-01-15T01:04:39.117Z,1007.85
2018-01-15T01:05:19.526Z,1007.86
2018-01-15T01:05:59.894Z,1007.82
2018-01-15T01:06:40.292Z,1007.83
2018-01-15T01:07:20.688Z,1007.79
2018-01-15T01:08:01.094Z,1007.79
2018-01-15T01:08:41.668Z,1007.79
2018-01-15T01:09:22.074Z,1007.79
2018-01-15T01:10:02.509Z,1007.71
2018-01-15T01:10:42.913Z,1007.71
2018-01-15T01:11:23.367Z,1007.73
2018-01-15T01:12:03.777Z,1007.74
2018-01-15T01:12:44.378Z,1007.74
2018-01-15T01:13:24.809Z,1007.71
2018-01-15T01:14:05.158Z,1007.74
2018-01-15T01:14:45.554Z,1007.73
2018-01-15T01:15:25.964Z,1007.75
2018-01-15T01:16:06.392Z,1007.76
2018-01-15T01:16:46.758Z,1007.78
2018-01-15T01:17:27.157Z,1007.7
2018-01-15T01:18:07.553Z,1007.73
2018-01-15T01:18:48.575Z,1007.71
2018-01-15T01:19:28.477Z,1007.73
2018-01-15T01:20:08.911Z,1007.68
2018-01-15T01:20:49.342Z,1007.73
2018-01-15T01:21:29.724Z,1007.72
2018-01-15T01:22:10.170Z,1007.72
2018-01-15T01:22:50.676Z,1007.76
2018-01-15T01:23:30.990Z,1007.67
2018-01-15T01:24:11.442Z,1007.7
2018-01-15T01:24:51.971Z,1007.67
2018-01-15T01:25:32.239Z,1007.67
2018-01-15T01:26:12.628Z,1007.64
2018-01-15T01:26:53.017Z,1007.66
2018-01-15T01:27:33.449Z,1007.65
2018-01-15T01:28:13.963Z,1007.62
2018-01-15T01:28:54.398Z,1007.56
2018-01-15T01:29:34.945Z,1007.66
2018-01-15T01:30:15.326Z,1007.59
2018-01-15T01:30:55.740Z,1007.52
2018-01-15T01:31:36.102Z,1007.56
2018-01-15T01:32:16.509Z,1007.59
2018-01-15T01:32:57.113Z,1007.56
2018-01-15T01:33:37.487Z,1007.59
2018-01-15T01:34:18.020Z,1007.64
2018-01-15T01:34:58.345Z,1007.63
2018-01-15T01:35:38.698Z,1007.62
2018-01-15T01:36:19.259Z,1007.6
2018-01-15T01:36:59.611Z,1007.56
2018-01-15T01:37:40.017Z,1007.53
2018-01-15T01:38:20.459Z,1007.53
2018-01-15T01:39:00.893Z,1007.55
2018-01-15T01:39:41.257Z,1007.58
2018-01-15T01:40:21.760Z,1007.57
2018-01-15T01:41:02.102Z,1007.53
2018-01-15T01:41:42.478Z,1007.51
2018-01-15T01:42:22.861Z,1007.47
2018-01-15T01:43:03.250Z,1007.5
2018-01-15T01:43:43.666Z,1007.56
2018-01-15T01:44:24.183Z,1007.54
2018-01-15T01:45:04.580Z,1007.46
2018-01-15T01:45:44.961Z,1007.45
2018-01-15T01:46:25.351Z,1007.44
2018-01-15T01:47:05.832Z,1007.45
2018-01-15T01:47:46.165Z,1007.45
2018-01-15T01:48:26.541Z,1007.48
2018-01-15T01:49:07.007Z,1007.45
2018-01-15T01:49:47.393Z,1007.42
2018-01-15T01:50:27.784Z,1007.44
2018-01-15T01:51:08.255Z,1007.47
2018-01-15T01:51:48.670Z,1007.49
2018-01-15T01:52:29.049Z,1007.43
2018-01-15T01:53:09.444Z,1007.46
2018-01-15T01:53:49.846Z,1007.44
2018-01-15T01:54:30.251Z,1007.43
2018-01-15T01:55:10.706Z,1007.4
2018-01-15T01:55:51.122Z,1007.42
2018-01-15T01:56:31.516Z,1007.37
2018-01-15T01:57:12.016Z,1007.38
2018-01-15T01:57:52.965Z,1007.37
2018-01-15T01:58:32.823Z,1007.38
2018-01-15T01:59:13.244Z,1007.36
2018-01-15T01:59:53.622Z,1007.32
2018-01-15T02:00:34.424Z,1007.33
2018-01-15T02:01:14.763Z,1007.33
2018-01-15T02:01:55.265Z,1007.32
2018-01-15T02:02:35.608Z,1007.24
2018-01-15T02:03:16.034Z,1007.3
2018-01-15T02:03:56.541Z,1007.27
2018-01-15T02:04:36.933Z,1007.29
2018-01-15T02:05:17.343Z,1007.31
2018-01-15T02:05:57.747Z,1007.29
2018-01-15T02:06:38.205Z,1007.28
2018-01-15T02:07:18.582Z,1007.23
2018-01-15T02:07:58.975Z,1007.23
2018-01-15T02:08:39.356Z,1007.24
2018-01-15T02:09:19.729Z,1007.21
2018-01-15T02:10:00.312Z,1007.18
2018-01-15T02:10:40.599Z,1007.2
2018-01-15T02:11:21.069Z,1007.16
2018-01-15T02:12:01.439Z,1007.13
2018-01-15T02:12:41.794Z,1007.15
2018-01-15T02:13:22.200Z,1007.13
2018-01-15T02:14:02.730Z,1007.14
2018-01-15T02:14:42.992Z,1007.12
2018-01-15T02:15:23.439Z,1007.15
2018-01-15T02:16:03.844Z,1007.1
2018-01-15T02:16:44.213Z,1007.12
2018-01-15T02:17:24.549Z,1007.13
2018-01-15T02:18:04.971Z,1007.04
2018-01-15T02:18:45.349Z,1007.07
2018-01-15T02:19:25.733Z,1007.03
2018-01-15T02:20:06.161Z,1006.96
2018-01-15T02:20:46.561Z,1007.01
2018-01-15T02:21:26.971Z,1007.03
2018-01-15T02:22:07.391Z,1006.98
2018-01-15T02:22:47.842Z,1006.96
2018-01-15T02:23:28.203Z,1006.96
2018-01-15T02:24:08.771Z,1006.98
2018-01-15T02:24:49.165Z,1007.02
2018-01-15T02:27:34.374Z,1007.01
2018-01-15T02:29:49.718Z,1007.01
2018-01-15T02:30:29.920Z,1006.99
2018-01-15T02:31:10.443Z,1006.94
2018-01-15T02:31:50.721Z,1006.99
2018-01-15T02:32:31.154Z,1006.96
2018-01-15T02:33:11.509Z,1006.96
2018-01-15T02:33:51.902Z,1006.97
2018-01-15T02:34:32.326Z,1006.92
2018-01-15T02:35:12.724Z,1006.97
2018-01-15T02:35:53.088Z,1006.94
2018-01-15T02:36:33.495Z,1006.94
2018-01-15T02:37:13.926Z,1006.98
2018-01-15T02:37:54.561Z,1006.96
2018-01-15T02:38:34.979Z,1007.01
2018-01-15T02:39:15.457Z,1007.01
2018-01-15T02:39:55.825Z,1007.04
2018-01-15T02:40:36.601Z,1006.95
2018-01-15T02:41:16.779Z,1006.91
2018-01-15T02:41:57.106Z,1006.98
2018-01-15T02:42:37.630Z,1006.92
2018-01-15T02:43:18.004Z,1006.96
2018-01-15T02:45:15.458Z,1006.85
2018-01-15T02:45:57.643Z,1006.91
2018-01-15T02:46:38.083Z,1006.86
2018-01-15T02:47:18.477Z,1006.84
2018-01-15T02:47:58.816Z,1006.82
2018-01-15T02:48:39.214Z,1006.78
2018-01-15T02:49:19.612Z,1006.77
2018-01-15T02:50:00.039Z,1006.74
2018-01-15T02:50:40.399Z,1006.76
2018-01-15T02:51:21.160Z,1006.75
2018-01-15T02:52:01.819Z,1006.74
2018-01-15T02:52:42.181Z,1006.74
2018-01-15T02:53:22.658Z,1006.69
2018-01-15T02:55:40.827Z,1006.69
2018-01-15T02:56:22.411Z,1006.68
2018-01-15T02:57:03.055Z,1006.68
2018-01-15T02:57:43.456Z,1006.71
2018-01-15T02:58:23.960Z,1006.73
2018-01-15T02:59:04.411Z,1006.67
2018-01-15T02:59:44.992Z,1006.69
2018-01-15T03:00:25.386Z,1006.69
2018-01-15T03:01:05.860Z,1006.71
2018-01-15T03:01:46.259Z,1006.73
2018-01-15T03:02:26.627Z,1006.7
2018-01-15T03:03:07.038Z,1006.73
2018-01-15T03:03:47.417Z,1006.64
2018-01-15T03:04:27.829Z,1006.65
2018-01-15T03:05:08.243Z,1006.62
2018-01-15T03:05:48.628Z,1006.61
2018-01-15T03:06:29.051Z,1006.57
2018-01-15T03:07:10.365Z,1006.56
2018-01-15T03:07:49.960Z,1006.47
2018-01-15T03:08:30.369Z,1006.54
2018-01-15T03:09:10.766Z,1006.41
2018-01-15T03:09:51.213Z,1006.36
2018-01-15T03:10:31.674Z,1006.46
2018-01-15T03:11:11.996Z,1006.39
2018-01-15T03:11:52.413Z,1006.39
2018-01-15T03:12:32.768Z,1006.34
2018-01-15T03:13:13.165Z,1006.26
2018-01-15T03:13:53.560Z,1006.35
2018-01-15T03:14:33.934Z,1006.29
2018-01-15T03:15:14.434Z,1006.23
2018-01-15T03:15:54.745Z,1006.27
2018-01-15T03:16:35.179Z,1006.23
2018-01-15T03:17:15.589Z,1006.22
2018-01-15T03:17:56.018Z,1006.22
2018-01-15T03:18:36.553Z,1006.2
2018-01-15T03:19:16.978Z,1006.19
2018-01-15T03:19:57.387Z,1006.16
2018-01-15T03:22:15.500Z,1006.24
2018-01-15T03:22:55.929Z,1006.15
2018-01-15T03:23:36.338Z,1006.23
2018-01-15T03:24:16.781Z,1006.27
2018-01-15T03:24:57.179Z,1006.25
2018-01-15T03:25:37.582Z,1006.26
2018-01-15T03:26:18.180Z,1006.17
2018-01-15T03:26:58.534Z,1006.22
2018-01-15T03:27:38.947Z,1006.2
2018-01-15T03:28:19.341Z,1006.17
2018-01-15T03:28:59.759Z,1006.11
2018-01-15T03:29:40.105Z,1006.14
2018-01-15T03:30:20.510Z,1006.08
2018-01-15T03:31:01.353Z,1006.1
2018-01-15T03:31:41.509Z,1006.12
2018-01-15T03:32:21.889Z,1006.03
2018-01-15T03:33:02.284Z,1006.03
2018-01-15T03:33:42.861Z,1006.02
2018-01-15T03:34:23.220Z,1006
2018-01-15T03:35:03.782Z,1006.09
2018-01-15T03:35:44.090Z,1006.03
2018-01-15T03:36:24.510Z,1005.96
2018-01-15T03:37:04.897Z,1005.93
2018-01-15T03:37:45.467Z,1005.91
2018-01-15T03:38:25.842Z,1005.95
2018-01-15T03:39:06.348Z,1005.95
2018-01-15T03:39:46.747Z,1006.01
2018-01-15T03:40:27.176Z,1005.99
2018-01-15T03:41:07.554Z,1005.96
2018-01-15T03:41:47.975Z,1005.97
2018-01-15T03:42:29.343Z,1006
2018-01-15T03:43:09.836Z,1005.91
2018-01-15T03:43:50.286Z,1005.97
2018-01-15T03:44:30.781Z,1006.01
2018-01-15T03:45:11.080Z,1005.98
2018-01-15T03:45:51.516Z,1005.95
2018-01-15T03:46:31.900Z,1005.95
2018-01-15T03:47:12.344Z,1005.94
2018-01-15T03:47:52.804Z,1005.98
2018-01-15T03:48:33.093Z,1005.96
2018-01-15T03:49:13.544Z,1005.88
2018-01-15T03:49:53.910Z,1005.97
2018-01-15T03:50:34.361Z,1005.95
2018-01-15T03:51:15.195Z,1005.94
2018-01-15T03:51:55.327Z,1005.92
2018-01-15T03:52:35.684Z,1005.89
2018-01-15T03:53:16.118Z,1005.9
2018-01-15T03:53:56.477Z,1005.85
2018-01-15T03:54:37.066Z,1005.83
2018-01-15T03:55:17.233Z,1005.91
2018-01-15T03:55:57.642Z,1005.83
2018-01-15T03:56:38.069Z,1005.83
2018-01-15T03:57:18.449Z,1005.78
2018-01-15T03:57:58.940Z,1005.78
2018-01-15T03:58:39.631Z,1005.78
2018-01-15T03:59:20.070Z,1005.75
2018-01-15T04:00:00.547Z,1005.8
2018-01-15T04:00:40.972Z,1005.68
2018-01-15T04:01:21.419Z,1005.67
2018-01-15T04:02:01.783Z,1005.61
2018-01-15T04:42:19.864Z,1005.03
2018-01-15T04:43:02.665Z,1005.03
2018-01-15T04:43:42.989Z,1005.05
2018-01-15T04:44:23.388Z,1005
2018-01-15T04:45:03.816Z,1005.01
2018-01-15T04:45:44.229Z,1005
2018-01-15T04:46:24.612Z,1005.04
2018-01-15T04:47:04.928Z,1005.01
2018-01-15T04:47:45.335Z,1004.95
2018-01-15T04:48:25.735Z,1005.03
2018-01-15T04:49:06.534Z,1004.99
2018-01-15T04:49:46.709Z,1005.01
2018-01-15T04:50:27.069Z,1005.01
2018-01-15T04:51:07.721Z,1005.05
2018-01-15T04:51:48.111Z,1005
2018-01-15T04:52:28.694Z,1004.96
2018-01-15T04:53:09.154Z,1005.01
2018-01-15T04:53:50.081Z,1005
2018-01-15T04:54:30.489Z,1004.97
2018-01-15T04:55:10.852Z,1005.02
2018-01-15T04:55:51.286Z,1004.93
2018-01-15T04:56:31.672Z,1005.03
2018-01-15T04:57:12.064Z,1004.91
2018-01-15T04:57:52.476Z,1004.94
2018-01-15T04:58:33.504Z,1004.91
2018-01-15T04:59:13.260Z,1004.87
2018-01-15T04:59:53.983Z,1004.91
2018-01-15T05:02:06.980Z,1004.88
2018-01-15T05:02:47.404Z,1004.89
2018-01-15T05:03:27.698Z,1004.91
2018-01-15T05:04:08.064Z,1004.83
2018-01-15T05:04:48.490Z,1004.85
2018-01-15T05:05:28.865Z,1004.82
2018-01-15T05:06:09.279Z,1004.88
2018-01-15T05:06:49.775Z,1004.8
2018-01-15T05:07:30.100Z,1004.79
2018-01-15T05:08:10.508Z,1004.83
2018-01-15T05:08:50.952Z,1004.8
2018-01-15T05:09:31.321Z,1004.82
2018-01-15T05:10:12.015Z,1004.8
2018-01-15T05:10:52.390Z,1004.74
2018-01-15T05:11:33.249Z,1004.77
2018-01-15T05:12:13.602Z,1004.82
2018-01-15T05:12:54.053Z,1004.77
2018-01-15T05:13:35.079Z,1004.76
2018-01-15T05:14:15.546Z,1004.73
2018-01-15T05:14:55.938Z,1004.71
2018-01-15T05:15:36.606Z,1004.71
2018-01-15T05:16:17.101Z,1004.61
2018-01-15T05:16:57.528Z,1004.67
2018-01-15T05:17:37.957Z,1004.65
2018-01-15T05:18:18.476Z,1004.66
2018-01-15T05:18:58.930Z,1004.64
2018-01-15T05:19:39.462Z,1004.67
2018-01-15T05:20:20.027Z,1004.7
2018-01-15T05:21:00.301Z,1004.67
2018-01-15T05:21:40.688Z,1004.59
2018-01-15T05:22:21.899Z,1004.65
2018-01-15T05:23:01.821Z,1004.6
2018-01-15T05:23:42.236Z,1004.56
2018-01-15T05:24:22.883Z,1004.58
2018-01-15T05:25:03.163Z,1004.54
2018-01-15T05:25:43.551Z,1004.52
2018-01-15T05:26:24.006Z,1004.53
2018-01-15T05:27:04.518Z,1004.49
2018-01-15T05:27:44.891Z,1004.52
2018-01-15T05:28:25.299Z,1004.49
2018-01-15T05:29:05.724Z,1004.51
2018-01-15T05:29:46.168Z,1004.52
2018-01-15T05:30:26.623Z,1004.49
2018-01-15T05:31:07.055Z,1004.48
2018-01-15T05:31:47.487Z,1004.48
2018-01-15T05:32:27.862Z,1004.46
2018-01-15T05:33:08.227Z,1004.43
2018-01-15T05:33:48.760Z,1004.42
2018-01-15T05:34:29.362Z,1004.49
2018-01-15T05:35:09.515Z,1004.42
2018-01-15T05:35:49.932Z,1004.44
2018-01-15T05:36:30.330Z,1004.38
2018-01-15T05:37:10.726Z,1004.39
2018-01-15T05:37:51.133Z,1004.34
2018-01-15T05:38:31.540Z,1004.35
2018-01-15T05:39:11.930Z,1004.36
2018-01-15T05:39:52.376Z,1004.4
2018-01-15T05:40:32.714Z,1004.37
2018-01-15T05:41:13.118Z,1004.39
2018-01-15T05:41:53.496Z,1004.41
2018-01-15T05:42:33.884Z,1004.41
2018-01-15T05:43:14.323Z,1004.4
2018-01-15T05:43:54.791Z,1004.31
2018-01-15T05:44:35.199Z,1004.37
2018-01-15T05:45:15.697Z,1004.42
2018-01-15T05:45:55.996Z,1004.34
2018-01-15T05:46:36.439Z,1004.37
2018-01-15T05:47:16.802Z,1004.37
2018-01-15T05:47:57.365Z,1004.33
2018-01-15T05:48:37.757Z,1004.27
2018-01-15T05:49:18.249Z,1004.27
2018-01-15T05:49:58.646Z,1004.27
2018-01-15T05:50:39.187Z,1004.32
2018-01-15T05:51:19.570Z,1004.28
2018-01-15T05:53:49.312Z,1004.24
2018-01-15T05:54:28.260Z,1004.21
2018-01-15T05:55:08.658Z,1004.2
2018-01-15T05:55:49.369Z,1004.23
2018-01-15T05:56:29.575Z,1004.21
2018-01-15T05:57:09.982Z,1004.18
2018-01-15T05:57:50.515Z,1004.2
2018-01-15T05:58:30.850Z,1004.2
2018-01-15T05:59:11.295Z,1004.13
2018-01-15T05:59:51.853Z,1004.15
2018-01-15T06:00:32.084Z,1004.19
2018-01-15T06:01:12.480Z,1004.17
2018-01-15T06:01:53.277Z,1004.17
2018-01-15T06:02:33.477Z,1004.2
2018-01-15T06:03:14.436Z,1004.19
2018-01-15T06:03:54.662Z,1004.14
2018-01-15T06:04:35.032Z,1004.1
2018-01-15T06:05:15.490Z,1004.06
2018-01-15T06:05:55.869Z,1004.12
2018-01-15T06:06:36.403Z,1004.1
2018-01-15T06:07:16.728Z,1004.05
2018-01-15T06:07:57.146Z,1004.07
2018-01-15T06:08:37.575Z,1004.07
2018-01-15T06:09:18.045Z,1004.03
2018-01-15T06:09:58.413Z,1004.11
2018-01-15T06:10:38.846Z,1004.08
2018-01-15T06:11:19.254Z,1004.08
2018-01-15T06:11:59.639Z,1004.08
2018-01-15T06:12:40.137Z,1004.08
2018-01-15T06:13:20.526Z,1004.07
2018-01-15T06:14:00.940Z,1004.04
2018-01-15T06:14:41.335Z,1004.11
2018-01-15T06:15:21.725Z,1004.04
2018-01-15T06:16:02.398Z,1003.99
2018-01-15T06:16:42.643Z,1003.96
2018-01-15T06:17:23.073Z,1003.97
2018-01-15T06:18:03.475Z,1003.96
2018-01-15T06:18:43.817Z,1003.94
2018-01-15T06:19:24.224Z,1003.96
2018-01-15T06:20:04.716Z,1003.89
2018-01-15T06:20:45.493Z,1003.9
2018-01-15T06:21:25.605Z,1003.87
2018-01-15T06:22:05.992Z,1003.84
2018-01-15T06:22:46.510Z,1003.84
2018-01-15T06:23:26.836Z,1003.79
2018-01-15T06:24:07.264Z,1003.8
2018-01-15T06:24:47.768Z,1003.81
2018-01-15T06:25:28.021Z,1003.78
2018-01-15T06:26:08.437Z,1003.75
2018-01-15T06:28:36.171Z,1003.68
2018-01-15T06:29:18.707Z,1003.67
2018-01-15T06:29:59.403Z,1003.71
2018-01-15T06:30:40.242Z,1003.68
2018-01-15T06:31:20.649Z,1003.66
2018-01-15T06:32:01.123Z,1003.65
2018-01-15T06:32:41.493Z,1003.61
2018-01-15T06:33:21.825Z,1003.65
2018-01-15T06:34:02.390Z,1003.58
2018-01-15T06:34:43.407Z,1003.6
2018-01-15T06:35:23.798Z,1003.65
2018-01-15T06:36:04.313Z,1003.6
2018-01-15T06:36:44.686Z,1003.6
2018-01-15T06:37:25.092Z,1003.55
2018-01-15T06:38:06.043Z,1003.53
2018-01-15T06:38:46.351Z,1003.54
2018-01-15T06:39:26.673Z,1003.56
2018-01-15T06:40:07.027Z,1003.48
2018-01-15T06:40:47.465Z,1003.5
2018-01-15T06:41:27.891Z,1003.49
2018-01-15T06:42:08.317Z,1003.44
2018-01-15T06:42:48.757Z,1003.47
2018-01-15T06:43:29.284Z,1003.47
2018-01-15T06:44:09.774Z,1003.45
2018-01-15T06:44:50.192Z,1003.43
2018-01-15T06:45:30.576Z,1003.44
2018-01-15T06:46:11.008Z,1003.47
2018-01-15T06:46:51.416Z,1003.4
2018-01-15T06:47:31.898Z,1003.43
2018-01-15T06:48:12.268Z,1003.46
2018-01-15T06:48:52.802Z,1003.36
2018-01-15T06:49:33.472Z,1003.38
2018-01-15T06:50:13.634Z,1003.37
2018-01-15T06:50:54.000Z,1003.34
2018-01-15T06:53:07.410Z,1003.33
2018-01-15T06:53:48.067Z,1003.32
2018-01-15T06:54:28.667Z,1003.29
2018-01-15T06:55:09.204Z,1003.27
2018-01-15T06:55:49.607Z,1003.28
2018-01-15T06:56:30.184Z,1003.28
2018-01-15T06:57:11.046Z,1003.23
2018-01-15T06:57:51.149Z,1003.23
2018-01-15T06:58:31.688Z,1003.24
2018-01-15T06:59:12.075Z,1003.19
2018-01-15T06:59:52.990Z,1003.18
2018-01-15T07:00:34.052Z,1003.16
2018-01-15T07:01:13.836Z,1003.15
2018-01-15T07:01:54.274Z,1003.14
2018-01-15T07:02:34.615Z,1003.15
2018-01-15T07:03:15.005Z,1003.1
2018-01-15T07:03:55.426Z,1003.11
2018-01-15T07:04:35.820Z,1003.19
2018-01-15T07:05:16.256Z,1003.19
2018-01-15T07:05:56.725Z,1003.1
2018-01-15T07:06:38.028Z,1003.12
2018-01-15T07:07:18.448Z,1003.2
2018-01-15T07:07:58.849Z,1003.14
2018-01-15T07:08:39.438Z,1003.12
2018-01-15T07:09:19.855Z,1003.13
2018-01-15T07:10:00.360Z,1003.11
2018-01-15T07:11:53.968Z,1003.07
2018-01-15T07:12:34.387Z,1003.09
2018-01-15T07:13:14.811Z,1002.99
2018-01-15T07:13:55.566Z,1003.03
2018-01-15T07:14:36.068Z,1003.07
2018-01-15T07:15:16.729Z,1003.07
2018-01-15T07:17:14.943Z,1003.07
2018-01-15T07:20:38.840Z,1003.01
2018-01-15T07:21:19.313Z,1003
2018-01-15T07:21:59.802Z,1002.96
2018-01-15T07:22:40.260Z,1002.98
2018-01-15T07:23:20.625Z,1002.98
2018-01-15T07:24:01.092Z,1002.94
2018-01-15T07:24:41.440Z,1002.96
2018-01-15T07:26:53.907Z,1002.88
2018-01-15T07:27:34.402Z,1002.93
2018-01-15T07:28:14.787Z,1002.89
2018-01-15T07:28:55.223Z,1002.87
2018-01-15T07:29:35.631Z,1002.88
2018-01-15T07:30:16.032Z,1002.86
2018-01-15T07:30:56.425Z,1002.94
2018-01-15T07:31:36.833Z,1002.87
2018-01-15T07:32:17.288Z,1002.83
2018-01-15T07:32:57.725Z,1002.84
2018-01-15T07:33:38.125Z,1002.88
2018-01-15T07:34:18.559Z,1002.8
2018-01-15T07:34:58.999Z,1002.76
2018-01-15T07:35:39.297Z,1002.83
2018-01-15T07:37:37.361Z,1002.84
2018-01-15T07:38:19.479Z,1002.83
2018-01-15T07:38:59.885Z,1002.83
2018-01-15T07:41:28.105Z,1002.87
2018-01-15T07:42:08.825Z,1002.86
2018-01-15T07:42:49.209Z,1002.87
2018-01-15T07:43:29.632Z,1002.86
2018-01-15T07:44:10.057Z,1002.87
2018-01-15T07:46:37.742Z,1002.86
2018-01-15T07:47:18.158Z,1002.83
2018-01-15T07:47:58.641Z,1002.86
2018-01-15T07:48:39.001Z,1002.82
2018-01-15T07:49:19.512Z,1002.84
2018-01-15T07:49:59.861Z,1002.82
2018-01-15T07:50:40.238Z,1002.75
2018-01-15T07:51:20.643Z,1002.74
2018-01-15T07:52:01.046Z,1002.78
2018-01-15T07:52:41.439Z,1002.75
2018-01-15T07:53:21.821Z,1002.77
2018-01-15T07:54:02.319Z,1002.81
2018-01-15T07:56:04.250Z,1002.81
2018-01-15T07:56:46.866Z,1002.74
2018-01-15T07:57:27.377Z,1002.78
2018-01-15T07:58:07.753Z,1002.83
2018-01-15T07:58:48.150Z,1002.73
2018-01-15T07:59:28.572Z,1002.71
2018-01-15T08:00:08.944Z,1002.75
2018-01-15T08:00:49.373Z,1002.8
2018-01-15T08:01:29.763Z,1002.78
2018-01-15T08:02:10.321Z,1002.7
2018-01-15T08:02:50.767Z,1002.71
2018-01-15T08:03:31.131Z,1002.65
2018-01-15T08:04:11.529Z,1002.67
2018-01-15T08:04:51.969Z,1002.6
2018-01-15T08:05:33.050Z,1002.66
2018-01-15T08:06:14.395Z,1002.63
2018-01-15T08:06:54.711Z,1002.6
2018-01-15T08:08:53.284Z,1002.6
2018-01-15T08:09:33.525Z,1002.58
2018-01-15T08:10:13.954Z,1002.56
2018-01-15T08:10:54.468Z,1002.59
2018-01-15T08:11:34.905Z,1002.58
2018-01-15T08:12:15.187Z,1002.62
2018-01-15T08:12:55.621Z,1002.6
2018-01-15T08:13:38.096Z,1002.59
2018-01-15T08:14:17.377Z,1002.63
2018-01-15T08:14:58.151Z,1002.58
2018-01-15T08:15:38.603Z,1002.56
2018-01-15T08:16:19.010Z,1002.56
2018-01-15T08:18:36.614Z,1002.49
2018-01-15T08:19:16.940Z,1002.57
2018-01-15T08:19:57.491Z,1002.58
2018-01-15T08:20:38.002Z,1002.58
2018-01-15T08:21:18.403Z,1002.46
2018-01-15T08:21:59.210Z,1002.46
2018-01-15T08:22:39.236Z,1002.45
2018-01-15T08:23:19.639Z,1002.43
2018-01-15T08:24:00.090Z,1002.48
2018-01-15T08:24:40.558Z,1002.44
2018-01-15T08:25:21.015Z,1002.39
2018-01-15T08:26:01.935Z,1002.4
2018-01-15T08:26:42.037Z,1002.41
2018-01-15T08:27:22.449Z,1002.37
2018-01-15T08:28:03.040Z,1002.37
2018-01-15T08:28:43.650Z,1002.32
2018-01-15T08:29:24.054Z,1002.35
2018-01-15T08:30:04.520Z,1002.39
2018-01-15T08:30:44.911Z,1002.4
2018-01-15T08:31:25.359Z,1002.37
2018-01-15T08:32:05.807Z,1002.37
2018-01-15T08:32:46.295Z,1002.43
2018-01-15T08:33:26.721Z,1002.42
2018-01-15T08:34:07.154Z,1002.42
2018-01-15T08:34:47.640Z,1002.38
2018-01-15T08:35:28.519Z,1002.35
2018-01-15T08:36:08.832Z,1002.36
2018-01-15T08:36:49.947Z,1002.35
2018-01-15T08:37:30.660Z,1002.39
2018-01-15T08:38:11.056Z,1002.36
2018-01-15T08:38:51.667Z,1002.38
2018-01-15T08:39:32.321Z,1002.34
2018-01-15T08:40:12.780Z,1002.41
2018-01-15T08:40:54.027Z,1002.34
2018-01-15T08:41:35.010Z,1002.3
2018-01-15T08:42:15.808Z,1002.31
2018-01-15T08:42:57.092Z,1002.29
2018-01-15T08:43:38.217Z,1002.29
2018-01-15T08:45:44.210Z,1002.23
2018-01-15T08:46:24.446Z,1002.2
2018-01-15T08:47:05.446Z,1002.21
2018-01-15T08:47:47.007Z,1002.24
2018-01-15T08:48:28.419Z,1002.18
2018-01-15T08:49:08.780Z,1002.24
2018-01-15T08:49:49.442Z,1002.19
2018-01-15T08:50:29.836Z,1002.19
2018-01-15T08:51:10.740Z,1002.2
2018-01-15T08:51:52.352Z,1002.21
2018-01-15T08:52:31.847Z,1002.16
2018-01-15T08:53:12.368Z,1002.15
2018-01-15T08:53:53.181Z,1002.17
2018-01-15T08:54:34.214Z,1002.15
2018-01-15T08:55:14.726Z,1002.15
2018-01-15T08:55:55.311Z,1002.11
2018-01-15T08:56:37.955Z,1002.05
2018-01-15T08:57:18.275Z,1002.1
2018-01-15T08:57:59.202Z,1002.03
2018-01-15T08:58:40.357Z,1002.01
2018-01-15T08:59:20.815Z,1002.01
2018-01-15T09:00:02.707Z,1002.01
2018-01-15T09:00:42.831Z,1001.96
2018-01-15T09:01:23.277Z,1001.87
2018-01-15T09:02:04.153Z,1001.92
2018-01-15T09:02:45.312Z,1001.98
2018-01-15T09:03:25.560Z,1001.86
2018-01-15T09:04:05.826Z,1001.92
2018-01-15T09:04:47.706Z,1001.97
2018-01-15T09:08:19.282Z,1001.88
2018-01-15T09:09:00.084Z,1001.92
2018-01-15T09:09:40.313Z,1001.87
2018-01-15T09:10:21.572Z,1001.8
2018-01-15T09:11:01.462Z,1001.83
2018-01-15T09:14:25.337Z,1001.79
2018-01-15T09:15:07.221Z,1001.76
2018-01-15T09:15:47.588Z,1001.81
2018-01-15T09:16:28.054Z,1001.84
2018-01-15T09:17:08.482Z,1001.75
2018-01-15T09:17:48.905Z,1001.72
2018-01-15T09:18:30.307Z,1001.74
2018-01-15T09:19:11.325Z,1001.7
2018-01-15T09:21:05.259Z,1001.7
2018-01-15T09:21:45.603Z,1001.68
2018-01-15T09:22:26.057Z,1001.74
2018-01-15T09:23:06.428Z,1001.54
2018-01-15T09:23:46.959Z,1001.62
2018-01-15T09:24:27.357Z,1001.68
2018-01-15T09:25:07.765Z,1001.67
2018-01-15T09:25:48.377Z,1001.69
2018-01-15T09:26:28.815Z,1001.6
2018-01-15T09:27:09.308Z,1001.68
2018-01-15T09:27:49.647Z,1001.5
2018-01-15T09:28:30.043Z,1001.62
2018-01-15T09:29:10.463Z,1001.51
2018-01-15T09:31:33.659Z,1001.53
2018-01-15T09:32:15.811Z,1001.54
2018-01-15T09:32:56.161Z,1001.58